sensor_id;sensor_type;location;lat;lon;timestamp;P1;durP1;ratioP1;P2;durP2;ratioP2
11439;SDS011;5776;51.814;4.510;2023-05-21T00:00:09;4.05;;;1.50;;
11439;SDS011;5776;51.814;4.510;2023-05-21T00:02:36;2.63;;;1.93;;
11439;SDS011;5776;51.814;4.510;2023-05-21T00:05:03;11.10;;;2.20;;
11439;SDS011;5776;51.814;4.510;2023-05-21T00:07:29;4.53;;;2.10;;
11439;SDS011;5776;51.814;4.510;2023-05-21T00:09:57;2.38;;;1.83;;
11439;SDS011;5776;51.814;4.510;2023-05-21T00:12:24;6.65;;;2.35;;
11439;SDS011;5776;51.814;4.510;2023-05-21T00:14:50;3.93;;;2.40;;
11439;SDS011;5776;51.814;4.510;2023-05-21T00:17:16;3.50;;;2.50;;
11439;SDS011;5776;51.814;4.510;2023-05-21T00:19:42;3.83;;;2.15;;
11439;SDS011;5776;51.814;4.510;2023-05-21T00:22:08;4.80;;;2.33;;
11439;SDS011;5776;51.814;4.510;2023-05-21T00:24:35;3.00;;;2.03;;
11439;SDS011;5776;51.814;4.510;2023-05-21T00:27:00;2.97;;;2.13;;
11439;SDS011;5776;51.814;4.510;2023-05-21T00:29:26;5.63;;;2.37;;
11439;SDS011;5776;51.814;4.510;2023-05-21T00:31:54;3.83;;;2.30;;
11439;SDS011;5776;51.814;4.510;2023-05-21T00:34:21;7.30;;;2.57;;
11439;SDS011;5776;51.814;4.510;2023-05-21T00:36:47;3.60;;;2.40;;
11439;SDS011;5776;51.814;4.510;2023-05-21T00:39:12;3.57;;;2.13;;
11439;SDS011;5776;51.814;4.510;2023-05-21T00:41:39;3.83;;;2.20;;
11439;SDS011;5776;51.814;4.510;2023-05-21T00:44:11;2.78;;;2.15;;
11439;SDS011;5776;51.814;4.510;2023-05-21T00:46:39;5.65;;;2.47;;
11439;SDS011;5776;51.814;4.510;2023-05-21T00:49:05;3.70;;;2.30;;
11439;SDS011;5776;51.814;4.510;2023-05-21T00:51:32;4.53;;;2.13;;
11439;SDS011;5776;51.814;4.510;2023-05-21T00:53:58;4.85;;;2.17;;
11439;SDS011;5776;51.814;4.510;2023-05-21T00:56:24;3.63;;;1.80;;
11439;SDS011;5776;51.814;4.510;2023-05-21T00:58:52;3.63;;;2.10;;
11439;SDS011;5776;51.814;4.510;2023-05-21T01:01:19;4.50;;;2.33;;
11439;SDS011;5776;51.814;4.510;2023-05-21T01:03:44;3.13;;;2.13;;
11439;SDS011;5776;51.814;4.510;2023-05-21T01:06:13;3.53;;;2.07;;
11439;SDS011;5776;51.814;4.510;2023-05-21T01:08:39;3.13;;;1.87;;
11439;SDS011;5776;51.814;4.510;2023-05-21T01:11:06;3.57;;;1.97;;
11439;SDS011;5776;51.814;4.510;2023-05-21T01:13:35;3.63;;;1.73;;
11439;SDS011;5776;51.814;4.510;2023-05-21T01:16:04;4.30;;;1.80;;
11439;SDS011;5776;51.814;4.510;2023-05-21T01:18:33;6.67;;;1.93;;
11439;SDS011;5776;51.814;4.510;2023-05-21T01:21:02;4.17;;;2.13;;
11439;SDS011;5776;51.814;4.510;2023-05-21T01:23:29;2.87;;;1.60;;
11439;SDS011;5776;51.814;4.510;2023-05-21T01:25:55;5.27;;;2.17;;
11439;SDS011;5776;51.814;4.510;2023-05-21T01:28:21;3.80;;;1.83;;
11439;SDS011;5776;51.814;4.510;2023-05-21T01:30:47;2.73;;;2.00;;
11439;SDS011;5776;51.814;4.510;2023-05-21T01:36:11;3.07;;;1.97;;
11439;SDS011;5776;51.814;4.510;2023-05-21T01:38:51;3.00;;;2.00;;
11439;SDS011;5776;51.814;4.510;2023-05-21T01:41:32;6.80;;;1.87;;
11439;SDS011;5776;51.814;4.510;2023-05-21T01:44:02;4.00;;;1.80;;
11439;SDS011;5776;51.814;4.510;2023-05-21T01:46:33;3.07;;;1.97;;
11439;SDS011;5776;51.814;4.510;2023-05-21T01:49:01;2.70;;;1.77;;
11439;SDS011;5776;51.814;4.510;2023-05-21T01:51:28;4.20;;;1.97;;
11439;SDS011;5776;51.814;4.510;2023-05-21T01:53:55;4.53;;;2.03;;
11439;SDS011;5776;51.814;4.510;2023-05-21T01:56:21;2.30;;;1.70;;
11439;SDS011;5776;51.814;4.510;2023-05-21T01:58:50;3.90;;;2.27;;
11439;SDS011;5776;51.814;4.510;2023-05-21T02:01:16;2.10;;;1.50;;
11439;SDS011;5776;51.814;4.510;2023-05-21T02:03:42;3.37;;;2.20;;
11439;SDS011;5776;51.814;4.510;2023-05-21T02:06:08;4.93;;;2.20;;
11439;SDS011;5776;51.814;4.510;2023-05-21T02:08:35;4.20;;;2.07;;
11439;SDS011;5776;51.814;4.510;2023-05-21T02:11:01;3.13;;;2.03;;
11439;SDS011;5776;51.814;4.510;2023-05-21T02:13:26;4.13;;;2.13;;
11439;SDS011;5776;51.814;4.510;2023-05-21T02:15:53;4.20;;;2.33;;
11439;SDS011;5776;51.814;4.510;2023-05-21T02:18:20;4.67;;;2.10;;
11439;SDS011;5776;51.814;4.510;2023-05-21T02:20:46;6.60;;;2.53;;
11439;SDS011;5776;51.814;4.510;2023-05-21T02:23:12;3.37;;;2.23;;
11439;SDS011;5776;51.814;4.510;2023-05-21T02:25:38;3.17;;;2.30;;
11439;SDS011;5776;51.814;4.510;2023-05-21T02:28:04;4.50;;;2.17;;
11439;SDS011;5776;51.814;4.510;2023-05-21T02:30:30;4.43;;;2.47;;
11439;SDS011;5776;51.814;4.510;2023-05-21T02:32:56;4.05;;;2.38;;
11439;SDS011;5776;51.814;4.510;2023-05-21T02:35:23;3.87;;;2.23;;
11439;SDS011;5776;51.814;4.510;2023-05-21T02:37:49;9.20;;;2.60;;
11439;SDS011;5776;51.814;4.510;2023-05-21T02:40:15;6.97;;;2.10;;
11439;SDS011;5776;51.814;4.510;2023-05-21T02:42:41;6.30;;;2.30;;
11439;SDS011;5776;51.814;4.510;2023-05-21T02:45:07;4.40;;;2.60;;
11439;SDS011;5776;51.814;4.510;2023-05-21T02:47:34;4.50;;;2.60;;
11439;SDS011;5776;51.814;4.510;2023-05-21T02:50:00;3.03;;;2.20;;
11439;SDS011;5776;51.814;4.510;2023-05-21T02:52:26;4.93;;;2.70;;
11439;SDS011;5776;51.814;4.510;2023-05-21T02:54:53;5.63;;;2.63;;
11439;SDS011;5776;51.814;4.510;2023-05-21T02:57:18;3.97;;;2.70;;
11439;SDS011;5776;51.814;4.510;2023-05-21T02:59:45;3.80;;;2.60;;
11439;SDS011;5776;51.814;4.510;2023-05-21T03:02:11;4.27;;;2.40;;
11439;SDS011;5776;51.814;4.510;2023-05-21T03:04:37;6.83;;;2.87;;
11439;SDS011;5776;51.814;4.510;2023-05-21T03:07:13;3.67;;;2.47;;
11439;SDS011;5776;51.814;4.510;2023-05-21T03:09:42;4.57;;;2.50;;
11439;SDS011;5776;51.814;4.510;2023-05-21T03:12:08;3.63;;;2.50;;
11439;SDS011;5776;51.814;4.510;2023-05-21T03:14:34;4.80;;;2.73;;
11439;SDS011;5776;51.814;4.510;2023-05-21T03:17:01;4.23;;;2.73;;
11439;SDS011;5776;51.814;4.510;2023-05-21T03:19:30;6.03;;;2.93;;
11439;SDS011;5776;51.814;4.510;2023-05-21T03:21:59;7.63;;;2.80;;
11439;SDS011;5776;51.814;4.510;2023-05-21T03:24:26;4.20;;;2.70;;
11439;SDS011;5776;51.814;4.510;2023-05-21T03:26:53;3.93;;;2.43;;
11439;SDS011;5776;51.814;4.510;2023-05-21T03:29:19;4.13;;;3.00;;
11439;SDS011;5776;51.814;4.510;2023-05-21T03:31:45;3.33;;;2.70;;
11439;SDS011;5776;51.814;4.510;2023-05-21T03:34:11;4.57;;;3.00;;
11439;SDS011;5776;51.814;4.510;2023-05-21T03:36:37;7.47;;;2.77;;
11439;SDS011;5776;51.814;4.510;2023-05-21T03:39:03;5.43;;;3.10;;
11439;SDS011;5776;51.814;4.510;2023-05-21T03:41:29;5.70;;;3.20;;
11439;SDS011;5776;51.814;4.510;2023-05-21T03:43:54;3.97;;;2.80;;
11439;SDS011;5776;51.814;4.510;2023-05-21T03:46:20;7.80;;;2.73;;
11439;SDS011;5776;51.814;4.510;2023-05-21T03:48:46;6.90;;;3.43;;
11439;SDS011;5776;51.814;4.510;2023-05-21T03:51:12;4.33;;;2.80;;
11439;SDS011;5776;51.814;4.510;2023-05-21T03:53:40;5.33;;;2.77;;
11439;SDS011;5776;51.814;4.510;2023-05-21T03:56:06;7.23;;;3.50;;
11439;SDS011;5776;51.814;4.510;2023-05-21T03:58:32;7.13;;;3.67;;
11439;SDS011;5776;51.814;4.510;2023-05-21T04:00:58;6.27;;;3.27;;
11439;SDS011;5776;51.814;4.510;2023-05-21T04:03:26;5.73;;;3.30;;
11439;SDS011;5776;51.814;4.510;2023-05-21T04:05:51;5.97;;;3.33;;
11439;SDS011;5776;51.814;4.510;2023-05-21T04:08:18;4.50;;;2.73;;
11439;SDS011;5776;51.814;4.510;2023-05-21T04:10:44;4.10;;;3.20;;
11439;SDS011;5776;51.814;4.510;2023-05-21T04:13:09;4.67;;;3.13;;
11439;SDS011;5776;51.814;4.510;2023-05-21T04:15:35;5.93;;;3.33;;
11439;SDS011;5776;51.814;4.510;2023-05-21T04:18:03;5.90;;;3.33;;
11439;SDS011;5776;51.814;4.510;2023-05-21T04:20:29;3.47;;;3.00;;
11439;SDS011;5776;51.814;4.510;2023-05-21T04:22:55;5.90;;;3.00;;
11439;SDS011;5776;51.814;4.510;2023-05-21T04:25:21;6.80;;;3.50;;
11439;SDS011;5776;51.814;4.510;2023-05-21T04:27:47;5.87;;;2.90;;
11439;SDS011;5776;51.814;4.510;2023-05-21T04:30:14;4.77;;;2.97;;
11439;SDS011;5776;51.814;4.510;2023-05-21T04:32:40;4.47;;;3.27;;
11439;SDS011;5776;51.814;4.510;2023-05-21T04:35:10;5.80;;;3.53;;
11439;SDS011;5776;51.814;4.510;2023-05-21T04:37:36;5.87;;;3.13;;
11439;SDS011;5776;51.814;4.510;2023-05-21T04:40:06;5.83;;;3.50;;
11439;SDS011;5776;51.814;4.510;2023-05-21T04:42:33;4.67;;;3.43;;
11439;SDS011;5776;51.814;4.510;2023-05-21T04:44:59;4.93;;;3.60;;
11439;SDS011;5776;51.814;4.510;2023-05-21T04:47:25;5.70;;;2.97;;
11439;SDS011;5776;51.814;4.510;2023-05-21T04:49:54;3.20;;;2.73;;
11439;SDS011;5776;51.814;4.510;2023-05-21T04:52:21;5.20;;;3.23;;
11439;SDS011;5776;51.814;4.510;2023-05-21T04:54:49;5.40;;;3.50;;
11439;SDS011;5776;51.814;4.510;2023-05-21T04:57:15;4.50;;;3.07;;
11439;SDS011;5776;51.814;4.510;2023-05-21T04:59:42;6.20;;;3.30;;
11439;SDS011;5776;51.814;4.510;2023-05-21T05:02:08;5.10;;;2.95;;
11439;SDS011;5776;51.814;4.510;2023-05-21T05:04:34;5.30;;;3.53;;
11439;SDS011;5776;51.814;4.510;2023-05-21T05:07:00;7.37;;;3.60;;
11439;SDS011;5776;51.814;4.510;2023-05-21T05:09:26;8.90;;;3.57;;
11439;SDS011;5776;51.814;4.510;2023-05-21T05:11:52;5.60;;;4.07;;
11439;SDS011;5776;51.814;4.510;2023-05-21T05:14:18;7.87;;;3.50;;
11439;SDS011;5776;51.814;4.510;2023-05-21T05:16:44;4.83;;;3.60;;
11439;SDS011;5776;51.814;4.510;2023-05-21T05:19:12;5.60;;;3.43;;
11439;SDS011;5776;51.814;4.510;2023-05-21T05:21:38;4.73;;;3.33;;
11439;SDS011;5776;51.814;4.510;2023-05-21T05:24:04;4.73;;;3.53;;
11439;SDS011;5776;51.814;4.510;2023-05-21T05:26:30;7.63;;;4.10;;
11439;SDS011;5776;51.814;4.510;2023-05-21T05:28:56;4.77;;;3.30;;
11439;SDS011;5776;51.814;4.510;2023-05-21T05:31:22;6.93;;;4.20;;
11439;SDS011;5776;51.814;4.510;2023-05-21T05:33:48;6.90;;;3.57;;
11439;SDS011;5776;51.814;4.510;2023-05-21T05:36:14;8.40;;;4.60;;
11439;SDS011;5776;51.814;4.510;2023-05-21T05:38:41;6.65;;;4.25;;
11439;SDS011;5776;51.814;4.510;2023-05-21T05:41:06;6.00;;;3.90;;
11439;SDS011;5776;51.814;4.510;2023-05-21T05:43:32;5.73;;;4.00;;
11439;SDS011;5776;51.814;4.510;2023-05-21T05:45:58;4.80;;;3.67;;
11439;SDS011;5776;51.814;4.510;2023-05-21T05:48:24;6.00;;;4.60;;
11439;SDS011;5776;51.814;4.510;2023-05-21T05:50:50;7.10;;;4.35;;
11439;SDS011;5776;51.814;4.510;2023-05-21T05:53:19;5.53;;;3.80;;
11439;SDS011;5776;51.814;4.510;2023-05-21T05:55:45;6.77;;;4.20;;
11439;SDS011;5776;51.814;4.510;2023-05-21T05:58:10;5.17;;;3.50;;
11439;SDS011;5776;51.814;4.510;2023-05-21T06:00:36;6.47;;;3.00;;
11439;SDS011;5776;51.814;4.510;2023-05-21T06:03:03;6.03;;;3.55;;
11439;SDS011;5776;51.814;4.510;2023-05-21T06:05:29;6.77;;;3.63;;
11439;SDS011;5776;51.814;4.510;2023-05-21T06:07:55;6.33;;;3.90;;
11439;SDS011;5776;51.814;4.510;2023-05-21T06:10:21;4.63;;;3.33;;
11439;SDS011;5776;51.814;4.510;2023-05-21T06:12:47;5.27;;;3.10;;
11439;SDS011;5776;51.814;4.510;2023-05-21T06:15:13;5.53;;;3.50;;
11439;SDS011;5776;51.814;4.510;2023-05-21T06:17:41;4.17;;;2.80;;
11439;SDS011;5776;51.814;4.510;2023-05-21T06:20:09;4.57;;;3.80;;
11439;SDS011;5776;51.814;4.510;2023-05-21T06:22:36;6.00;;;3.50;;
11439;SDS011;5776;51.814;4.510;2023-05-21T06:25:03;4.70;;;3.60;;
11439;SDS011;5776;51.814;4.510;2023-05-21T06:27:29;4.93;;;3.23;;
11439;SDS011;5776;51.814;4.510;2023-05-21T06:29:55;6.80;;;3.30;;
11439;SDS011;5776;51.814;4.510;2023-05-21T06:32:22;5.43;;;4.10;;
11439;SDS011;5776;51.814;4.510;2023-05-21T06:34:49;4.30;;;2.43;;
11439;SDS011;5776;51.814;4.510;2023-05-21T06:37:18;5.33;;;3.30;;
11439;SDS011;5776;51.814;4.510;2023-05-21T06:39:45;5.53;;;3.83;;
11439;SDS011;5776;51.814;4.510;2023-05-21T06:42:12;5.43;;;3.53;;
11439;SDS011;5776;51.814;4.510;2023-05-21T06:44:38;4.27;;;3.13;;
11439;SDS011;5776;51.814;4.510;2023-05-21T06:47:04;4.60;;;3.27;;
11439;SDS011;5776;51.814;4.510;2023-05-21T06:49:30;5.70;;;3.43;;
11439;SDS011;5776;51.814;4.510;2023-05-21T06:51:57;4.00;;;3.00;;
11439;SDS011;5776;51.814;4.510;2023-05-21T06:54:23;3.73;;;2.87;;
11439;SDS011;5776;51.814;4.510;2023-05-21T06:56:49;5.93;;;3.53;;
11439;SDS011;5776;51.814;4.510;2023-05-21T06:59:15;4.53;;;3.13;;
11439;SDS011;5776;51.814;4.510;2023-05-21T07:01:41;5.50;;;3.03;;
11439;SDS011;5776;51.814;4.510;2023-05-21T07:04:07;6.63;;;2.67;;
11439;SDS011;5776;51.814;4.510;2023-05-21T07:06:34;7.17;;;3.30;;
11439;SDS011;5776;51.814;4.510;2023-05-21T07:09:00;5.07;;;3.10;;
11439;SDS011;5776;51.814;4.510;2023-05-21T07:11:26;10.60;;;3.10;;
11439;SDS011;5776;51.814;4.510;2023-05-21T07:13:53;6.87;;;3.80;;
11439;SDS011;5776;51.814;4.510;2023-05-21T07:16:20;8.43;;;3.33;;
11439;SDS011;5776;51.814;4.510;2023-05-21T07:18:47;6.10;;;3.20;;
11439;SDS011;5776;51.814;4.510;2023-05-21T07:21:13;5.97;;;3.90;;
11439;SDS011;5776;51.814;4.510;2023-05-21T07:23:38;3.87;;;3.07;;
11439;SDS011;5776;51.814;4.510;2023-05-21T07:26:05;7.40;;;2.87;;
11439;SDS011;5776;51.814;4.510;2023-05-21T07:28:30;4.80;;;3.50;;
11439;SDS011;5776;51.814;4.510;2023-05-21T07:30:56;5.45;;;3.28;;
11439;SDS011;5776;51.814;4.510;2023-05-21T07:33:22;3.35;;;2.30;;
11439;SDS011;5776;51.814;4.510;2023-05-21T07:35:47;6.85;;;4.25;;
11439;SDS011;5776;51.814;4.510;2023-05-21T07:38:13;4.97;;;3.17;;
11439;SDS011;5776;51.814;4.510;2023-05-21T07:40:39;6.57;;;3.37;;
11439;SDS011;5776;51.814;4.510;2023-05-21T07:43:05;6.10;;;4.30;;
11439;SDS011;5776;51.814;4.510;2023-05-21T07:45:31;6.03;;;4.50;;
11439;SDS011;5776;51.814;4.510;2023-05-21T07:47:57;8.30;;;3.80;;
11439;SDS011;5776;51.814;4.510;2023-05-21T07:50:23;6.60;;;3.77;;
11439;SDS011;5776;51.814;4.510;2023-05-21T07:52:50;4.28;;;3.35;;
11439;SDS011;5776;51.814;4.510;2023-05-21T07:55:15;5.25;;;3.55;;
11439;SDS011;5776;51.814;4.510;2023-05-21T07:57:42;3.90;;;3.40;;
11439;SDS011;5776;51.814;4.510;2023-05-21T08:00:10;5.75;;;3.28;;
11439;SDS011;5776;51.814;4.510;2023-05-21T08:02:38;7.95;;;3.25;;
11439;SDS011;5776;51.814;4.510;2023-05-21T08:05:04;6.13;;;3.93;;
11439;SDS011;5776;51.814;4.510;2023-05-21T08:07:31;7.57;;;4.32;;
11439;SDS011;5776;51.814;4.510;2023-05-21T08:09:57;6.25;;;3.80;;
11439;SDS011;5776;51.814;4.510;2023-05-21T08:12:23;5.23;;;3.50;;
11439;SDS011;5776;51.814;4.510;2023-05-21T08:14:49;9.67;;;4.70;;
11439;SDS011;5776;51.814;4.510;2023-05-21T08:17:15;7.18;;;4.50;;
11439;SDS011;5776;51.814;4.510;2023-05-21T08:19:41;5.50;;;3.57;;
11439;SDS011;5776;51.814;4.510;2023-05-21T08:22:07;5.10;;;2.53;;
11439;SDS011;5776;51.814;4.510;2023-05-21T08:24:33;5.18;;;3.92;;
11439;SDS011;5776;51.814;4.510;2023-05-21T08:26:59;6.27;;;3.90;;
11439;SDS011;5776;51.814;4.510;2023-05-21T08:29:25;7.20;;;4.80;;
11439;SDS011;5776;51.814;4.510;2023-05-21T08:31:51;7.93;;;5.53;;
11439;SDS011;5776;51.814;4.510;2023-05-21T08:34:17;6.80;;;4.10;;
11439;SDS011;5776;51.814;4.510;2023-05-21T08:36:43;4.75;;;3.42;;
11439;SDS011;5776;51.814;4.510;2023-05-21T08:39:11;6.53;;;4.70;;
11439;SDS011;5776;51.814;4.510;2023-05-21T08:41:39;6.33;;;4.47;;
11439;SDS011;5776;51.814;4.510;2023-05-21T08:44:08;6.32;;;3.97;;
11439;SDS011;5776;51.814;4.510;2023-05-21T08:46:37;7.57;;;4.93;;
11439;SDS011;5776;51.814;4.510;2023-05-21T08:49:07;7.75;;;4.47;;
11439;SDS011;5776;51.814;4.510;2023-05-21T08:51:37;5.00;;;3.50;;
11439;SDS011;5776;51.814;4.510;2023-05-21T08:54:04;6.20;;;3.35;;
11439;SDS011;5776;51.814;4.510;2023-05-21T08:56:30;7.40;;;4.63;;
11439;SDS011;5776;51.814;4.510;2023-05-21T08:58:57;6.55;;;3.47;;
11439;SDS011;5776;51.814;4.510;2023-05-21T09:01:24;6.77;;;3.67;;
11439;SDS011;5776;51.814;4.510;2023-05-21T09:03:51;8.05;;;4.85;;
11439;SDS011;5776;51.814;4.510;2023-05-21T09:06:19;4.93;;;2.92;;
11439;SDS011;5776;51.814;4.510;2023-05-21T09:08:47;6.22;;;3.95;;
11439;SDS011;5776;51.814;4.510;2023-05-21T09:11:19;9.20;;;4.45;;
11439;SDS011;5776;51.814;4.510;2023-05-21T09:13:46;10.35;;;4.30;;
11439;SDS011;5776;51.814;4.510;2023-05-21T09:16:13;6.57;;;4.78;;
11439;SDS011;5776;51.814;4.510;2023-05-21T09:18:38;10.90;;;4.75;;
11439;SDS011;5776;51.814;4.510;2023-05-21T09:23:57;8.93;;;5.20;;
11439;SDS011;5776;51.814;4.510;2023-05-21T09:26:24;6.93;;;4.80;;
11439;SDS011;5776;51.814;4.510;2023-05-21T09:28:51;6.50;;;4.05;;
11439;SDS011;5776;51.814;4.510;2023-05-21T09:31:22;7.38;;;4.65;;
11439;SDS011;5776;51.814;4.510;2023-05-21T09:33:48;8.45;;;3.60;;
11439;SDS011;5776;51.814;4.510;2023-05-21T09:36:18;6.57;;;3.90;;
11439;SDS011;5776;51.814;4.510;2023-05-21T09:38:44;7.75;;;4.70;;
11439;SDS011;5776;51.814;4.510;2023-05-21T09:41:11;6.80;;;5.00;;
11439;SDS011;5776;51.814;4.510;2023-05-21T09:43:37;7.65;;;4.18;;
11439;SDS011;5776;51.814;4.510;2023-05-21T09:46:03;5.95;;;3.80;;
11439;SDS011;5776;51.814;4.510;2023-05-21T09:48:36;8.00;;;5.03;;
11439;SDS011;5776;51.814;4.510;2023-05-21T09:51:10;7.57;;;4.90;;
11439;SDS011;5776;51.814;4.510;2023-05-21T09:53:53;5.25;;;3.88;;
11439;SDS011;5776;51.814;4.510;2023-05-21T09:56:25;6.32;;;3.70;;
11439;SDS011;5776;51.814;4.510;2023-05-21T09:58:54;6.45;;;3.55;;
11439;SDS011;5776;51.814;4.510;2023-05-21T10:01:25;12.90;;;5.07;;
11439;SDS011;5776;51.814;4.510;2023-05-21T10:03:55;7.78;;;4.72;;
11439;SDS011;5776;51.814;4.510;2023-05-21T10:06:23;4.80;;;3.70;;
11439;SDS011;5776;51.814;4.510;2023-05-21T10:08:53;6.07;;;3.80;;
11439;SDS011;5776;51.814;4.510;2023-05-21T10:11:21;9.40;;;4.43;;
11439;SDS011;5776;51.814;4.510;2023-05-21T10:13:54;6.13;;;4.15;;
11439;SDS011;5776;51.814;4.510;2023-05-21T10:16:25;6.45;;;4.25;;
11439;SDS011;5776;51.814;4.510;2023-05-21T10:18:51;4.57;;;3.67;;
11439;SDS011;5776;51.814;4.510;2023-05-21T10:21:20;5.07;;;4.07;;
11439;SDS011;5776;51.814;4.510;2023-05-21T10:23:47;6.30;;;3.95;;
11439;SDS011;5776;51.814;4.510;2023-05-21T10:26:14;5.20;;;4.10;;
11439;SDS011;5776;51.814;4.510;2023-05-21T10:28:40;9.82;;;4.78;;
11439;SDS011;5776;51.814;4.510;2023-05-21T10:31:06;6.03;;;3.67;;
11439;SDS011;5776;51.814;4.510;2023-05-21T10:33:33;4.82;;;3.45;;
11439;SDS011;5776;51.814;4.510;2023-05-21T10:36:00;5.50;;;4.18;;
11439;SDS011;5776;51.814;4.510;2023-05-21T10:38:26;7.18;;;4.22;;
11439;SDS011;5776;51.814;4.510;2023-05-21T10:40:53;8.32;;;4.60;;
11439;SDS011;5776;51.814;4.510;2023-05-21T11:00:08;5.50;;;3.00;;
11439;SDS011;5776;51.814;4.510;2023-05-21T11:02:37;6.65;;;4.53;;
11439;SDS011;5776;51.814;4.510;2023-05-21T11:05:03;6.95;;;3.72;;
11439;SDS011;5776;51.814;4.510;2023-05-21T11:13:11;7.38;;;4.15;;
11439;SDS011;5776;51.814;4.510;2023-05-21T11:21:08;6.00;;;3.85;;
11439;SDS011;5776;51.814;4.510;2023-05-21T11:23:55;5.82;;;3.53;;
11439;SDS011;5776;51.814;4.510;2023-05-21T11:26:23;8.48;;;3.65;;
11439;SDS011;5776;51.814;4.510;2023-05-21T11:31:28;6.10;;;4.55;;
11439;SDS011;5776;51.814;4.510;2023-05-21T11:34:21;7.45;;;5.50;;
11439;SDS011;5776;51.814;4.510;2023-05-21T11:39:54;4.35;;;3.08;;
11439;SDS011;5776;51.814;4.510;2023-05-21T11:44:54;6.80;;;4.43;;
11439;SDS011;5776;51.814;4.510;2023-05-21T11:47:24;10.98;;;4.85;;
11439;SDS011;5776;51.814;4.510;2023-05-21T11:49:52;6.53;;;4.25;;
11439;SDS011;5776;51.814;4.510;2023-05-21T11:52:18;10.18;;;5.60;;
11439;SDS011;5776;51.814;4.510;2023-05-21T11:54:49;7.13;;;4.47;;
11439;SDS011;5776;51.814;4.510;2023-05-21T11:57:19;8.05;;;5.05;;
11439;SDS011;5776;51.814;4.510;2023-05-21T11:59:45;7.55;;;5.60;;
11439;SDS011;5776;51.814;4.510;2023-05-21T12:02:19;9.23;;;5.70;;
11439;SDS011;5776;51.814;4.510;2023-05-21T12:04:49;9.15;;;5.50;;
11439;SDS011;5776;51.814;4.510;2023-05-21T12:07:16;13.05;;;5.78;;
11439;SDS011;5776;51.814;4.510;2023-05-21T12:09:47;6.07;;;4.50;;
11439;SDS011;5776;51.814;4.510;2023-05-21T12:12:15;6.68;;;4.40;;
11439;SDS011;5776;51.814;4.510;2023-05-21T12:14:45;8.10;;;4.88;;
11439;SDS011;5776;51.814;4.510;2023-05-21T12:17:17;9.10;;;5.20;;
11439;SDS011;5776;51.814;4.510;2023-05-21T12:19:44;6.05;;;3.90;;
11439;SDS011;5776;51.814;4.510;2023-05-21T12:22:11;7.65;;;4.80;;
11439;SDS011;5776;51.814;4.510;2023-05-21T12:24:38;10.23;;;5.25;;
11439;SDS011;5776;51.814;4.510;2023-05-21T12:27:04;7.63;;;4.90;;
11439;SDS011;5776;51.814;4.510;2023-05-21T12:29:35;8.95;;;4.95;;
11439;SDS011;5776;51.814;4.510;2023-05-21T12:32:02;8.02;;;6.00;;
11439;SDS011;5776;51.814;4.510;2023-05-21T12:34:44;7.00;;;4.38;;
11439;SDS011;5776;51.814;4.510;2023-05-21T12:37:12;5.85;;;4.50;;
11439;SDS011;5776;51.814;4.510;2023-05-21T12:39:44;6.47;;;4.28;;
11439;SDS011;5776;51.814;4.510;2023-05-21T12:42:12;8.38;;;5.88;;
11439;SDS011;5776;51.814;4.510;2023-05-21T12:44:38;9.93;;;4.90;;
11439;SDS011;5776;51.814;4.510;2023-05-21T12:47:08;10.25;;;5.07;;
11439;SDS011;5776;51.814;4.510;2023-05-21T12:49:39;10.13;;;5.15;;
11439;SDS011;5776;51.814;4.510;2023-05-21T12:52:07;6.70;;;4.13;;
11439;SDS011;5776;51.814;4.510;2023-05-21T12:54:36;7.20;;;4.65;;
11439;SDS011;5776;51.814;4.510;2023-05-21T12:57:06;8.88;;;5.35;;
11439;SDS011;5776;51.814;4.510;2023-05-21T13:02:37;8.52;;;5.07;;
11439;SDS011;5776;51.814;4.510;2023-05-21T13:05:04;8.48;;;5.32;;
11439;SDS011;5776;51.814;4.510;2023-05-21T13:07:41;8.50;;;5.88;;
11439;SDS011;5776;51.814;4.510;2023-05-21T13:10:08;10.30;;;6.00;;
11439;SDS011;5776;51.814;4.510;2023-05-21T13:12:36;10.25;;;6.07;;
11439;SDS011;5776;51.814;4.510;2023-05-21T13:15:02;9.18;;;5.55;;
11439;SDS011;5776;51.814;4.510;2023-05-21T13:17:30;8.05;;;4.93;;
11439;SDS011;5776;51.814;4.510;2023-05-21T13:20:09;6.93;;;5.00;;
11439;SDS011;5776;51.814;4.510;2023-05-21T13:22:45;7.50;;;5.30;;
11439;SDS011;5776;51.814;4.510;2023-05-21T13:25:13;10.93;;;6.50;;
11439;SDS011;5776;51.814;4.510;2023-05-21T13:27:41;10.50;;;5.65;;
11439;SDS011;5776;51.814;4.510;2023-05-21T13:30:07;6.97;;;4.25;;
11439;SDS011;5776;51.814;4.510;2023-05-21T13:32:35;6.60;;;4.25;;
11439;SDS011;5776;51.814;4.510;2023-05-21T13:35:01;9.00;;;5.70;;
11439;SDS011;5776;51.814;4.510;2023-05-21T13:37:27;8.40;;;5.00;;
11439;SDS011;5776;51.814;4.510;2023-05-21T13:39:53;6.60;;;4.28;;
11439;SDS011;5776;51.814;4.510;2023-05-21T13:42:19;8.27;;;4.88;;
11439;SDS011;5776;51.814;4.510;2023-05-21T13:44:46;7.93;;;4.47;;
11439;SDS011;5776;51.814;4.510;2023-05-21T13:47:12;6.28;;;4.38;;
11439;SDS011;5776;51.814;4.510;2023-05-21T13:49:38;8.18;;;5.85;;
11439;SDS011;5776;51.814;4.510;2023-05-21T13:52:05;9.18;;;5.03;;
11439;SDS011;5776;51.814;4.510;2023-05-21T13:54:32;7.18;;;5.15;;
11439;SDS011;5776;51.814;4.510;2023-05-21T13:56:58;8.75;;;6.20;;
11439;SDS011;5776;51.814;4.510;2023-05-21T13:59:24;7.90;;;4.80;;
11439;SDS011;5776;51.814;4.510;2023-05-21T14:01:50;7.88;;;4.90;;
11439;SDS011;5776;51.814;4.510;2023-05-21T14:04:17;7.45;;;4.70;;
11439;SDS011;5776;51.814;4.510;2023-05-21T14:06:44;11.35;;;4.97;;
11439;SDS011;5776;51.814;4.510;2023-05-21T14:09:11;7.50;;;4.82;;
11439;SDS011;5776;51.814;4.510;2023-05-21T14:11:37;10.00;;;5.72;;
11439;SDS011;5776;51.814;4.510;2023-05-21T14:14:03;9.18;;;5.65;;
11439;SDS011;5776;51.814;4.510;2023-05-21T14:16:30;10.38;;;5.88;;
11439;SDS011;5776;51.814;4.510;2023-05-21T14:18:56;8.73;;;4.57;;
11439;SDS011;5776;51.814;4.510;2023-05-21T14:21:23;7.43;;;4.95;;
11439;SDS011;5776;51.814;4.510;2023-05-21T14:23:50;9.55;;;5.15;;
11439;SDS011;5776;51.814;4.510;2023-05-21T14:26:16;6.35;;;4.65;;
11439;SDS011;5776;51.814;4.510;2023-05-21T14:28:42;7.95;;;4.55;;
11439;SDS011;5776;51.814;4.510;2023-05-21T14:31:09;9.95;;;4.20;;
11439;SDS011;5776;51.814;4.510;2023-05-21T14:33:35;6.70;;;4.35;;
11439;SDS011;5776;51.814;4.510;2023-05-21T14:36:02;8.82;;;4.53;;
11439;SDS011;5776;51.814;4.510;2023-05-21T14:38:30;6.50;;;4.30;;
11439;SDS011;5776;51.814;4.510;2023-05-21T14:40:56;9.73;;;4.60;;
11439;SDS011;5776;51.814;4.510;2023-05-21T14:43:22;8.48;;;5.72;;
11439;SDS011;5776;51.814;4.510;2023-05-21T14:45:48;7.47;;;4.93;;
11439;SDS011;5776;51.814;4.510;2023-05-21T14:48:15;8.38;;;5.15;;
11439;SDS011;5776;51.814;4.510;2023-05-21T14:50:43;9.73;;;5.10;;
11439;SDS011;5776;51.814;4.510;2023-05-21T14:53:10;9.35;;;4.57;;
11439;SDS011;5776;51.814;4.510;2023-05-21T14:55:37;9.23;;;4.97;;
11439;SDS011;5776;51.814;4.510;2023-05-21T14:58:03;5.88;;;3.88;;
11439;SDS011;5776;51.814;4.510;2023-05-21T15:00:29;8.48;;;5.18;;
11439;SDS011;5776;51.814;4.510;2023-05-21T15:02:55;5.95;;;3.67;;
11439;SDS011;5776;51.814;4.510;2023-05-21T15:05:22;9.73;;;5.68;;
11439;SDS011;5776;51.814;4.510;2023-05-21T15:07:49;10.30;;;4.95;;
11439;SDS011;5776;51.814;4.510;2023-05-21T15:10:16;10.02;;;6.32;;
11439;SDS011;5776;51.814;4.510;2023-05-21T15:12:42;6.38;;;4.43;;
11439;SDS011;5776;51.814;4.510;2023-05-21T15:15:08;10.10;;;4.75;;
11439;SDS011;5776;51.814;4.510;2023-05-21T15:17:35;8.80;;;5.22;;
11439;SDS011;5776;51.814;4.510;2023-05-21T15:20:02;10.85;;;5.97;;
11439;SDS011;5776;51.814;4.510;2023-05-21T15:22:32;6.55;;;4.28;;
11439;SDS011;5776;51.814;4.510;2023-05-21T15:24:58;8.32;;;4.50;;
11439;SDS011;5776;51.814;4.510;2023-05-21T15:27:25;10.15;;;4.90;;
11439;SDS011;5776;51.814;4.510;2023-05-21T15:29:51;8.73;;;4.43;;
11439;SDS011;5776;51.814;4.510;2023-05-21T15:32:17;8.05;;;5.63;;
11439;SDS011;5776;51.814;4.510;2023-05-21T15:34:45;7.05;;;4.68;;
11439;SDS011;5776;51.814;4.510;2023-05-21T15:37:12;9.50;;;4.28;;
11439;SDS011;5776;51.814;4.510;2023-05-21T15:39:41;9.45;;;5.55;;
11439;SDS011;5776;51.814;4.510;2023-05-21T15:42:07;7.28;;;4.53;;
11439;SDS011;5776;51.814;4.510;2023-05-21T15:44:33;7.10;;;4.75;;